Time;durP1;ratioP1;P1;durP2;ratioP2;P2;SDS_P1;SDS_P2;PMS_P1;PMS_P2;Temp;Humidity;BMP_temperature;BMP_pressure;BME280_temperature;BME280_humidity;BME280_pressure;Samples;Min_cycle;Max_cycle;Signal;HPM_P1;HPM_P2
2022/09/29 00:01:02;;;;;;;5.28;2.97;;;9.50;99.90;;;;;;5135907;27;20212;-52
2022/09/29 00:03:27;;;;;;;4.55;3.10;;;9.50;99.90;;;;;;5136336;27;20171;-52
2022/09/29 00:05:54;;;;;;;3.72;2.85;;;9.50;99.90;;;;;;5136357;27;20167;-52
2022/09/29 00:08:23;;;;;;;7.72;3.15;;;9.40;99.90;;;;;;5135937;27;20175;-52
2022/09/29 00:10:48;;;;;;;6.25;2.95;;;9.50;99.90;;;;;;5135973;27;20196;-52
2022/09/29 00:13:15;;;;;;;5.15;3.10;;;9.50;99.90;;;;;;5135864;27;20199;-52
2022/09/29 00:15:41;;;;;;;6.97;3.33;;;9.50;99.90;;;;;;5135782;27;20168;-52
2022/09/29 00:18:08;;;;;;;4.55;3.45;;;9.40;99.90;;;;;;5135849;27;20271;-52
2022/09/29 00:20:34;;;;;;;8.20;3.20;;;9.40;99.90;;;;;;5135967;27;20160;-52
2022/09/29 00:22:59;;;;;;;4.05;3.53;;;9.40;99.90;;;;;;5135824;27;20187;-52
2022/09/29 00:25:25;;;;;;;6.60;3.35;;;9.40;99.90;;;;;;5136155;27;20163;-52
2022/09/29 00:27:51;;;;;;;6.47;3.47;;;9.50;99.90;;;;;;5135719;27;20652;-53
2022/09/29 00:30:16;;;;;;;4.70;3.13;;;9.40;99.90;;;;;;5135990;27;20392;-53
2022/09/29 00:32:42;;;;;;;4.38;3.22;;;9.40;99.90;;;;;;5135614;27;20172;-53
2022/09/29 00:35:09;;;;;;;4.55;3.45;;;9.40;99.90;;;;;;5135495;27;20221;-53
2022/09/29 00:37:35;;;;;;;5.78;3.13;;;9.30;99.90;;;;;;5135210;27;20211;-53
2022/09/29 00:40:01;;;;;;;8.70;4.70;;;9.30;99.90;;;;;;5135666;27;20172;-52
2022/09/29 00:42:27;;;;;;;4.00;3.60;;;9.30;99.90;;;;;;5135357;27;20178;-53
2022/09/29 00:45:06;;;;;;;12.50;3.67;;;9.30;99.90;;;;;;5135632;27;20164;-53
2022/09/29 00:47:34;;;;;;;6.28;3.90;;;9.30;99.90;;;;;;5135579;27;20172;-52
2022/09/29 00:50:25;;;;;;;5.30;4.03;;;9.30;99.90;;;;;;5135208;27;20164;-52
2022/09/29 00:53:00;;;;;;;6.22;3.72;;;9.30;99.90;;;;;;5135374;27;20187;-52
2022/09/29 00:55:41;;;;;;;4.57;3.58;;;9.20;99.90;;;;;;5135387;27;20271;-52
2022/09/29 00:58:19;;;;;;;7.80;4.05;;;9.20;99.90;;;;;;5134991;27;20745;-52
2022/09/29 01:00:46;;;;;;;5.32;3.22;;;9.00;99.90;;;;;;5135033;27;20843;-53
2022/09/29 01:03:18;;;;;;;4.18;3.15;;;9.00;99.90;;;;;;5135187;27;20228;-53
2022/09/29 01:05:58;;;;;;;4.88;3.15;;;9.00;99.90;;;;;;5135011;27;20156;-53
2022/09/29 01:08:50;;;;;;;7.65;3.17;;;9.00;99.90;;;;;;5135412;27;20209;-53
2022/09/29 01:11:19;;;;;;;7.93;4.18;;;9.00;99.90;;;;;;5134563;27;20168;-52
2022/09/29 01:13:46;;;;;;;4.25;3.67;;;9.00;99.90;;;;;;5134768;27;20164;-53
2022/09/29 01:16:11;;;;;;;7.18;3.90;;;9.00;99.90;;;;;;5134795;27;20164;-53
2022/09/29 01:18:38;;;;;;;4.50;3.25;;;9.00;99.90;;;;;;5134579;27;20206;-53
2022/09/29 01:21:25;;;;;;;3.65;3.00;;;8.90;99.90;;;;;;5134693;27;20258;-53
2022/09/29 01:24:21;;;;;;;5.93;3.38;;;8.90;99.90;;;;;;5134560;27;20168;-53
2022/09/29 01:27:14;;;;;;;6.50;3.00;;;8.90;99.90;;;;;;5134605;27;20168;-53
2022/09/29 01:29:49;;;;;;;4.38;3.10;;;8.90;99.90;;;;;;5134499;27;20164;-53
2022/09/29 01:32:20;;;;;;;4.60;3.30;;;8.80;99.90;;;;;;5134112;27;20280;-53
2022/09/29 01:35:09;;;;;;;5.82;3.63;;;8.80;99.90;;;;;;5134397;27;20168;-53
2022/09/29 01:37:35;;;;;;;4.55;4.15;;;8.90;99.90;;;;;;5134497;27;20204;-53
2022/09/29 01:40:12;;;;;;;6.10;3.28;;;8.80;99.90;;;;;;5134311;27;20645;-53
2022/09/29 01:42:59;;;;;;;6.00;3.72;;;8.80;99.90;;;;;;5134294;27;20170;-53
2022/09/29 01:45:49;;;;;;;3.90;3.50;;;8.80;99.90;;;;;;5134551;27;20253;-53
2022/09/29 01:48:23;;;;;;;3.40;3.10;;;8.70;99.90;;;;;;5133803;27;20205;-53
2022/09/29 01:50:54;;;;;;;4.10;3.35;;;8.70;99.90;;;;;;5134180;27;20215;-53
2022/09/29 01:53:26;;;;;;;5.55;3.58;;;8.70;99.90;;;;;;5133222;27;20176;-53
2022/09/29 01:55:55;;;;;;;5.20;3.28;;;8.70;99.90;;;;;;5133887;27;20537;-53
2022/09/29 01:58:34;;;;;;;6.00;3.92;;;8.70;99.90;;;;;;5133806;27;20195;-53
2022/09/29 02:01:06;;;;;;;4.18;3.38;;;8.70;99.90;;;;;;5133962;27;20164;-53
2022/09/29 02:03:45;;;;;;;7.95;3.83;;;8.60;99.90;;;;;;5133860;27;20222;-53
2022/09/29 02:06:16;;;;;;;6.53;3.78;;;8.60;99.90;;;;;;5133711;27;20164;-53
2022/09/29 02:08:46;;;;;;;3.65;3.03;;;8.60;99.90;;;;;;5133891;27;20236;-53
2022/09/29 02:11:13;;;;;;;4.10;3.08;;;8.60;99.90;;;;;;5133750;27;20175;-53
2022/09/29 02:13:54;;;;;;;5.13;3.80;;;8.60;99.90;;;;;;5133552;27;20168;-53
2022/09/29 02:16:28;;;;;;;5.93;4.13;;;8.60;99.90;;;;;;5133652;27;20179;-53
2022/09/29 02:19:04;;;;;;;4.40;3.60;;;8.50;99.90;;;;;;5133324;27;20176;-53
2022/09/29 02:21:29;;;;;;;4.00;3.60;;;8.60;99.90;;;;;;5133507;27;20566;-53
2022/09/29 02:23:56;;;;;;;4.80;3.60;;;8.50;99.90;;;;;;5132561;27;20171;-53
2022/09/29 02:26:24;;;;;;;5.35;3.72;;;8.60;99.90;;;;;;5134076;27;20214;-53
2022/09/29 02:28:51;;;;;;;3.63;3.25;;;8.50;99.90;;;;;;5133355;27;20168;-53
2022/09/29 02:31:18;;;;;;;5.45;4.10;;;8.50;99.90;;;;;;5133275;27;20849;-53
2022/09/29 02:33:43;;;;;;;4.95;3.65;;;8.50;99.90;;;;;;5133037;27;20207;-53
2022/09/29 02:36:32;;;;;;;3.92;3.40;;;8.50;99.90;;;;;;5133195;27;20195;-53
2022/09/29 02:39:13;;;;;;;3.92;3.20;;;8.40;99.90;;;;;;5133127;27;20179;-53
2022/09/29 02:41:42;;;;;;;4.60;3.40;;;8.40;99.90;;;;;;5132708;27;20163;-53
2022/09/29 02:44:24;;;;;;;5.35;2.95;;;8.40;99.90;;;;;;5132985;27;20172;-53
2022/09/29 02:47:04;;;;;;;3.97;3.45;;;8.40;99.90;;;;;;5133083;27;20199;-53
2022/09/29 02:49:54;;;;;;;5.93;3.35;;;8.40;99.90;;;;;;5132895;27;20168;-53
2022/09/29 02:52:25;;;;;;;5.13;3.45;;;8.40;99.90;;;;;;5133155;27;20257;-53
2022/09/29 02:55:04;;;;;;;3.53;3.00;;;8.30;99.90;;;;;;5132883;27;20207;-53
2022/09/29 02:58:02;;;;;;;4.00;3.30;;;8.30;99.90;;;;;;5132914;27;20253;-53
2022/09/29 03:00:28;;;;;;;4.15;3.50;;;8.30;99.90;;;;;;5111991;27;20187;-53
2022/09/29 03:02:54;;;;;;;4.85;3.75;;;8.30;99.90;;;;;;5112271;28;20204;-53
2022/09/29 03:05:21;;;;;;;4.80;4.28;;;8.30;99.90;;;;;;5111772;28;20192;-53
2022/09/29 03:07:47;;;;;;;3.85;3.40;;;8.20;99.90;;;;;;5112179;28;20169;-53
2022/09/29 03:10:14;;;;;;;6.97;4.03;;;8.20;99.90;;;;;;5112228;28;20241;-53
2022/09/29 03:12:40;;;;;;;4.57;3.35;;;8.20;99.90;;;;;;5112094;28;20637;-53
2022/09/29 03:15:06;;;;;;;4.75;3.90;;;8.20;99.90;;;;;;5111714;28;20177;-53
2022/09/29 03:17:32;;;;;;;7.78;4.20;;;8.20;99.90;;;;;;5112278;28;20204;-53
2022/09/29 03:19:57;;;;;;;4.40;3.55;;;8.20;99.90;;;;;;5111985;28;20248;-53
2022/09/29 03:22:24;;;;;;;4.32;3.72;;;8.20;99.90;;;;;;5112578;28;20217;-53
2022/09/29 03:24:49;;;;;;;6.30;4.32;;;8.20;99.90;;;;;;5112077;28;20168;-53
2022/09/29 03:27:15;;;;;;;5.40;4.07;;;8.10;99.90;;;;;;5112168;28;20164;-53
2022/09/29 03:29:41;;;;;;;7.50;4.20;;;8.10;99.90;;;;;;5111991;28;20532;-53
2022/09/29 03:32:07;;;;;;;4.97;4.13;;;8.10;99.90;;;;;;5112187;28;20176;-53
2022/09/29 03:34:33;;;;;;;5.22;4.05;;;8.10;99.90;;;;;;5112033;28;20167;-53
2022/09/29 03:36:59;;;;;;;4.50;3.75;;;8.10;99.90;;;;;;5111918;28;20707;-53
2022/09/29 03:39:25;;;;;;;5.20;3.88;;;8.10;99.90;;;;;;5112284;28;20634;-53
2022/09/29 03:41:51;;;;;;;7.05;4.22;;;8.00;99.90;;;;;;5111848;28;20172;-53
2022/09/29 03:44:16;;;;;;;4.82;4.05;;;8.00;99.90;;;;;;5111871;28;20174;-53
2022/09/29 03:46:42;;;;;;;4.93;4.50;;;8.00;99.90;;;;;;5111598;28;20566;-53
2022/09/29 03:49:11;;;;;;;6.70;4.47;;;8.00;99.90;;;;;;5111754;28;20180;-53
2022/09/29 03:51:37;;;;;;;8.43;5.35;;;8.00;99.90;;;;;;5111767;28;20552;-53
2022/09/29 03:54:03;;;;;;;7.07;6.32;;;8.00;99.90;;;;;;5111626;28;20165;-53
2022/09/29 03:56:29;;;;;;;11.07;5.95;;;8.00;99.90;;;;;;5111855;28;20562;-53
2022/09/29 03:58:55;;;;;;;6.07;5.47;;;8.00;99.90;;;;;;5112156;28;20192;-53
2022/09/29 04:01:21;;;;;;;5.38;4.88;;;8.00;99.90;;;;;;5112131;28;20199;-53
2022/09/29 04:03:47;;;;;;;7.07;4.97;;;8.00;99.90;;;;;;5111595;28;20176;-53
2022/09/29 04:06:12;;;;;;;8.05;4.47;;;8.00;99.90;;;;;;5111935;28;20168;-53
2022/09/29 04:08:38;;;;;;;7.43;5.47;;;8.00;99.90;;;;;;5111625;28;20193;-53
2022/09/29 04:11:04;;;;;;;6.00;4.75;;;8.00;99.90;;;;;;5111615;28;20260;-53
2022/09/29 04:13:30;;;;;;;6.70;4.88;;;8.00;99.90;;;;;;5111964;28;20603;-53
2022/09/29 04:16:04;;;;;;;5.20;4.55;;;7.90;99.90;;;;;;5114006;28;20169;-53
2022/09/29 04:18:30;;;;;;;5.40;4.13;;;8.00;99.90;;;;;;5115511;28;20605;-53
2022/09/29 04:20:59;;;;;;;4.22;3.83;;;7.90;99.90;;;;;;5116007;28;20176;-53
2022/09/29 04:23:26;;;;;;;5.78;4.32;;;7.90;99.90;;;;;;5115871;28;20172;-53
2022/09/29 04:25:51;;;;;;;5.25;4.53;;;7.90;99.90;;;;;;5115487;28;20173;-53
2022/09/29 04:28:17;;;;;;;5.97;3.97;;;7.80;99.90;;;;;;5115216;28;20165;-53
2022/09/29 04:30:42;;;;;;;6.20;4.38;;;7.80;99.90;;;;;;5115013;28;20168;-53
2022/09/29 04:33:09;;;;;;;5.65;4.10;;;7.70;99.90;;;;;;5115071;28;20172;-53
2022/09/29 04:35:34;;;;;;;8.02;4.35;;;7.70;99.90;;;;;;5115041;28;20248;-53
2022/09/29 04:38:00;;;;;;;5.05;4.05;;;7.70;99.90;;;;;;5114955;27;20287;-53
2022/09/29 04:40:25;;;;;;;4.95;4.30;;;7.70;99.90;;;;;;5115087;28;20183;-53
2022/09/29 04:42:51;;;;;;;4.30;3.55;;;7.70;99.90;;;;;;5115033;28;20525;-53
2022/09/29 04:45:16;;;;;;;4.72;3.88;;;7.70;99.90;;;;;;5114890;28;20169;-53
2022/09/29 04:47:42;;;;;;;7.10;4.13;;;7.60;99.90;;;;;;5114796;27;20172;-53
2022/09/29 04:50:08;;;;;;;6.70;3.88;;;7.60;99.90;;;;;;5114695;28;20645;-53
2022/09/29 04:52:34;;;;;;;6.28;4.00;;;7.60;99.90;;;;;;5114645;27;20255;-53
2022/09/29 04:55:00;;;;;;;3.50;3.15;;;7.60;99.90;;;;;;5114409;28;20216;-53
2022/09/29 04:57:26;;;;;;;3.75;3.40;;;7.60;99.90;;;;;;5114487;28;20200;-53
2022/09/29 04:59:51;;;;;;;3.65;3.35;;;7.60;99.90;;;;;;5115148;27;20165;-53
2022/09/29 05:02:20;;;;;;;4.07;3.70;;;7.50;99.90;;;;;;5114444;28;20621;-53
2022/09/29 05:04:46;;;;;;;7.18;4.15;;;7.50;99.90;;;;;;5113073;28;20251;-53
2022/09/29 05:07:13;;;;;;;5.10;4.30;;;7.40;99.90;;;;;;5114291;27;20645;-53
2022/09/29 05:09:39;;;;;;;6.07;4.70;;;7.40;99.90;;;;;;5114349;28;20193;-53
2022/09/29 05:12:04;;;;;;;6.30;4.88;;;7.40;99.90;;;;;;5114280;28;20180;-53
2022/09/29 05:14:30;;;;;;;8.70;5.20;;;7.50;99.90;;;;;;5114331;28;20214;-53
2022/09/29 05:16:56;;;;;;;15.85;7.35;;;7.50;99.90;;;;;;5114639;28;20229;-53
2022/09/29 05:19:21;;;;;;;8.15;5.05;;;7.50;99.90;;;;;;5114293;28;20693;-53
2022/09/29 05:21:47;;;;;;;5.82;4.35;;;7.50;99.90;;;;;;5114129;28;20203;-53
2022/09/29 05:24:13;;;;;;;7.75;4.60;;;7.40;99.90;;;;;;5114006;28;20577;-53
2022/09/29 05:26:39;;;;;;;8.73;5.60;;;7.40;99.90;;;;;;5113131;28;20614;-53
2022/09/29 05:29:04;;;;;;;7.55;5.05;;;7.50;99.90;;;;;;5114195;28;20171;-53
2022/09/29 05:31:30;;;;;;;18.88;9.35;;;7.50;99.90;;;;;;5113971;28;20649;-53
2022/09/29 05:33:56;;;;;;;26.63;11.10;;;7.50;99.90;;;;;;5114189;28;20584;-53
2022/09/29 05:36:22;;;;;;;11.57;6.40;;;7.50;99.90;;;;;;5114519;28;20172;-53
2022/09/29 05:38:48;;;;;;;8.05;5.82;;;7.50;99.90;;;;;;5113568;28;20196;-53
2022/09/29 05:41:21;;;;;;;12.77;7.90;;;11.00;99.90;;;;;;5113612;28;20156;-53
2022/09/29 05:43:47;;;;;;;10.63;5.50;;;7.60;99.90;;;;;;5112980;27;20191;-53
2022/09/29 05:46:13;;;;;;;7.72;5.38;;;7.50;99.90;;;;;;5111879;28;20251;-53
2022/09/29 05:48:39;;;;;;;8.93;5.45;;;7.50;99.90;;;;;;5111910;28;20185;-53
2022/09/29 05:51:11;;;;;;;13.82;5.95;;;7.60;99.90;;;;;;5112630;28;20799;-53
2022/09/29 05:53:37;;;;;;;7.57;5.65;;;7.60;99.90;;;;;;5113528;28;20633;-53
2022/09/29 05:56:07;;;;;;;7.63;4.70;;;7.60;99.90;;;;;;5113172;28;20262;-53
2022/09/29 05:58:33;;;;;;;9.27;5.50;;;7.70;99.90;;;;;;5113563;28;20204;-53
2022/09/29 06:00:58;;;;;;;8.27;4.88;;;7.70;99.90;;;;;;5113187;28;20160;-52
2022/09/29 06:03:24;;;;;;;7.50;4.93;;;7.70;99.90;;;;;;5113651;28;20194;-53
2022/09/29 06:05:49;;;;;;;8.50;4.43;;;7.80;99.90;;;;;;5113102;28;20157;-53
2022/09/29 06:08:15;;;;;;;6.45;4.35;;;7.80;99.90;;;;;;5113134;28;20204;-53
2022/09/29 06:10:41;;;;;;;6.43;4.30;;;7.80;99.90;;;;;;5113133;28;20160;-53
2022/09/29 06:13:07;;;;;;;12.30;4.80;;;7.90;99.90;;;;;;5111958;28;20553;-52
2022/09/29 06:15:33;;;;;;;7.38;4.43;;;8.00;99.90;;;;;;5112086;28;20153;-53
2022/09/29 06:18:00;;;;;;;21.30;10.88;;;8.00;99.90;;;;;;5111344;28;20207;-53
2022/09/29 06:20:26;;;;;;;26.50;13.90;;;8.10;99.90;;;;;;5116283;27;20208;-54
2022/09/29 06:22:55;;;;;;;15.23;7.82;;;8.20;99.90;;;;;;5132548;27;20495;-54
2022/09/29 06:25:21;;;;;;;13.63;6.72;;;10.90;99.90;;;;;;5132640;27;20179;-51
2022/09/29 06:27:47;;;;;;;10.88;6.82;;;8.30;99.90;;;;;;5132236;27;20160;-57
2022/09/29 06:30:13;;;;;;;8.73;6.13;;;8.40;99.90;;;;;;5131913;27;20168;-56
2022/09/29 06:32:39;;;;;;;11.43;6.05;;;8.40;99.90;;;;;;5131852;27;20635;-52
2022/09/29 06:37:52;;;;;;;6.63;4.90;;;8.50;99.90;;;;;;5111153;28;20207;-51
2022/09/29 06:40:20;;;;;;;11.50;5.65;;;8.60;99.90;;;;;;5111330;28;20161;-53
2022/09/29 06:42:45;;;;;;;8.32;4.82;;;8.70;99.90;;;;;;5112148;28;20206;-53
2022/09/29 06:45:11;;;;;;;8.48;5.38;;;8.80;99.90;;;;;;5112845;28;20165;-53
2022/09/29 06:47:36;;;;;;;8.77;6.28;;;8.90;99.90;;;;;;5128403;27;20753;-53
2022/09/29 06:50:03;;;;;;;5.72;5.13;;;8.90;99.90;;;;;;5112637;28;20251;-53
2022/09/29 06:52:28;;;;;;;7.78;5.10;;;9.00;99.90;;;;;;5112668;27;20173;-53
2022/09/29 06:54:54;;;;;;;7.53;4.85;;;9.10;99.90;;;;;;5112491;28;20212;-53
2022/09/29 06:57:19;;;;;;;8.88;5.30;;;9.20;99.90;;;;;;5112107;28;20196;-54
2022/09/29 06:59:45;;;;;;;10.80;5.05;;;9.40;99.90;;;;;;5112318;28;20214;-53
2022/09/29 07:02:11;;;;;;;6.40;4.50;;;9.50;99.90;;;;;;5112504;28;20168;-53
2022/09/29 07:04:36;;;;;;;7.85;4.50;;;9.50;99.90;;;;;;5112214;28;20168;-53
2022/09/29 07:07:02;;;;;;;6.82;4.35;;;9.80;99.90;;;;;;5112176;28;20160;-53
2022/09/29 07:09:28;;;;;;;35.15;17.13;;;9.90;99.90;;;;;;5112116;28;20172;-53
2022/09/29 07:11:53;;;;;;;14.50;8.45;;;10.10;99.90;;;;;;5112495;28;20219;-53
2022/09/29 07:14:24;;;;;;;8.43;5.18;;;10.30;99.90;;;;;;5112064;28;20172;-53
2022/09/29 07:16:50;;;;;;;5.95;4.75;;;10.30;99.90;;;;;;5112483;27;20176;-53
2022/09/29 07:19:18;;;;;;;12.80;6.22;;;10.60;99.90;;;;;;5112301;28;20217;-53
2022/09/29 07:21:46;;;;;;;7.68;4.68;;;10.60;99.90;;;;;;5112035;27;20196;-53
2022/09/29 07:24:12;;;;;;;7.15;4.93;;;10.60;99.90;;;;;;5111936;28;20179;-53
2022/09/29 07:26:38;;;;;;;7.50;5.82;;;10.70;99.90;;;;;;5111934;28;20563;-53
2022/09/29 07:29:03;;;;;;;7.63;4.93;;;10.80;99.90;;;;;;5112012;28;20668;-53
2022/09/29 07:31:29;;;;;;;7.05;4.50;;;11.00;99.90;;;;;;5111876;28;20525;-54
2022/09/29 07:33:55;;;;;;;6.95;4.32;;;11.00;99.90;;;;;;5112439;28;20304;-53
2022/09/29 07:36:21;;;;;;;7.18;4.60;;;11.10;99.90;;;;;;5112549;27;20164;-53
2022/09/29 07:38:49;;;;;;;8.15;4.47;;;11.10;99.90;;;;;;5111864;28;20240;-53
2022/09/29 07:41:15;;;;;;;7.15;4.88;;;11.20;99.90;;;;;;5111986;28;20267;-53
2022/09/29 07:43:40;;;;;;;9.48;5.65;;;11.20;99.90;;;;;;5111895;28;20164;-53
2022/09/29 07:46:07;;;;;;;11.57;5.90;;;11.20;99.90;;;;;;5111858;28;20169;-53
2022/09/29 07:48:33;;;;;;;17.65;7.13;;;11.30;99.90;;;;;;5112126;27;20171;-53
2022/09/29 07:51:04;;;;;;;5.05;4.05;;;11.30;99.90;;;;;;5114358;28;20668;-53
2022/09/29 07:53:30;;;;;;;6.78;4.22;;;11.50;99.90;;;;;;5115793;27;20168;-53
2022/09/29 07:56:05;;;;;;;6.15;4.03;;;11.50;99.90;;;;;;5115698;28;20212;-54
2022/09/29 07:58:31;;;;;;;23.20;10.20;;;11.60;99.90;;;;;;5115735;28;20567;-53
2022/09/29 08:00:58;;;;;;;7.95;4.68;;;11.70;99.90;;;;;;5115998;28;20192;-53
2022/09/29 08:03:24;;;;;;;22.67;11.15;;;11.70;99.90;;;;;;5116057;28;20165;-53
2022/09/29 08:05:51;;;;;;;5.72;4.30;;;11.70;99.90;;;;;;5115821;28;20169;-53
2022/09/29 08:08:16;;;;;;;7.40;4.38;;;11.80;99.90;;;;;;5115556;28;20171;-53
2022/09/29 08:10:42;;;;;;;6.03;3.90;;;11.90;99.90;;;;;;5115486;27;20161;-53
2022/09/29 08:13:08;;;;;;;8.27;4.63;;;11.90;99.90;;;;;;5115410;28;20170;-53
2022/09/29 08:15:33;;;;;;;5.32;4.32;;;12.00;99.90;;;;;;5115800;27;20626;-53
2022/09/29 08:17:59;;;;;;;11.05;6.20;;;12.20;99.90;;;;;;5115341;28;20196;-53
2022/09/29 08:20:25;;;;;;;8.27;4.20;;;12.40;99.90;;;;;;5115782;28;20161;-53
2022/09/29 08:22:51;;;;;;;8.98;4.90;;;12.50;99.90;;;;;;5115830;28;20178;-53
2022/09/29 08:25:17;;;;;;;5.90;3.85;;;12.60;99.90;;;;;;5115547;27;20160;-53
2022/09/29 08:27:44;;;;;;;4.82;3.75;;;12.70;99.90;;;;;;5115292;28;20248;-53
2022/09/29 08:30:10;;;;;;;4.82;3.85;;;12.90;99.90;;;;;;5115456;27;20169;-53
2022/09/29 08:32:37;;;;;;;5.25;4.13;;;13.00;99.90;;;;;;5115033;28;20255;-53
2022/09/29 08:35:03;;;;;;;4.95;3.90;;;12.90;99.90;;;;;;5115342;27;20176;-53
2022/09/29 08:37:30;;;;;;;7.68;4.20;;;12.70;99.90;;;;;;5115189;28;20574;-53
2022/09/29 08:39:55;;;;;;;4.78;3.70;;;12.70;99.90;;;;;;5115231;28;20220;-53
2022/09/29 08:42:47;;;;;;;4.82;4.07;;;12.90;99.90;;;;;;5115224;28;20596;-53
2022/09/29 08:45:22;;;;;;;5.05;4.13;;;12.90;99.90;;;;;;5115199;27;20164;-53
2022/09/29 08:47:49;;;;;;;7.68;4.10;;;12.90;99.90;;;;;;5114812;27;20156;-53
2022/09/29 08:50:52;;;;;;;6.20;4.22;;;13.20;99.90;;;;;;5114740;28;20165;-53
2022/09/29 08:53:20;;;;;;;5.85;3.88;;;13.60;99.90;;;;;;5114285;28;20184;-53
2022/09/29 08:56:09;;;;;;;8.27;4.72;;;13.70;99.90;;;;;;5114358;28;20272;-53
2022/09/29 08:58:37;;;;;;;5.97;4.15;;;13.90;99.90;;;;;;5114644;28;20200;-53
2022/09/29 09:01:26;;;;;;;6.70;4.85;;;14.10;99.90;;;;;;5113766;28;20179;-53
2022/09/29 09:03:51;;;;;;;5.13;3.97;;;14.30;99.90;;;;;;5115084;28;20172;-53
2022/09/29 09:06:20;;;;;;;5.60;4.15;;;14.20;99.90;;;;;;5114786;28;20169;-53
2022/09/29 09:09:05;;;;;;;6.00;4.00;;;14.20;99.90;;;;;;5114462;28;20156;-53
2022/09/29 09:11:44;;;;;;;5.40;4.15;;;14.20;99.90;;;;;;5114350;27;20629;-52
2022/09/29 09:14:13;;;;;;;6.68;4.68;;;14.30;99.90;;;;;;5114232;28;20179;-53
2022/09/29 09:17:05;;;;;;;5.95;4.05;;;14.30;99.90;;;;;;5114137;28;20164;-53
2022/09/29 09:20:09;;;;;;;8.00;4.68;;;14.20;99.90;;;;;;5114184;28;20648;-53
2022/09/29 09:22:43;;;;;;;7.38;4.55;;;14.40;99.90;;;;;;5114182;28;20160;-53
2022/09/29 09:25:35;;;;;;;9.27;5.00;;;14.70;99.90;;;;;;5114069;28;20189;-53
2022/09/29 09:28:26;;;;;;;5.50;4.93;;;15.10;99.90;;;;;;5114095;28;20160;-53
2022/09/29 09:30:57;;;;;;;11.68;5.88;;;15.20;99.90;;;;;;5114520;27;20176;-53
2022/09/29 09:33:30;;;;;;;10.15;5.97;;;15.10;99.90;;;;;;5114280;28;20164;-53
2022/09/29 09:36:01;;;;;;;9.90;6.03;;;15.50;99.90;;;;;;5114144;28;20179;-53
2022/09/29 09:38:45;;;;;;;12.43;7.03;;;15.40;99.90;;;;;;5114001;27;20215;-53
2022/09/29 09:41:16;;;;;;;12.23;7.13;;;15.40;99.90;;;;;;5113643;28;20199;-53
2022/09/29 09:43:46;;;;;;;13.00;6.72;;;15.40;99.90;;;;;;5113719;28;20186;-53
2022/09/29 09:46:26;;;;;;;10.68;7.13;;;15.40;99.90;;;;;;5113636;28;20626;-53
2022/09/29 09:48:58;;;;;;;10.32;7.00;;;15.60;99.90;;;;;;5113960;28;20247;-53
2022/09/29 09:51:34;;;;;;;11.82;5.80;;;15.40;99.90;;;;;;5114144;28;20214;-53
2022/09/29 09:54:08;;;;;;;8.07;5.43;;;15.40;99.90;;;;;;5113458;28;20245;-53
2022/09/29 09:56:59;;;;;;;13.00;6.80;;;15.50;99.90;;;;;;5113532;28;20668;-53
2022/09/29 09:59:44;;;;;;;13.07;7.70;;;15.30;99.90;;;;;;5113314;28;20180;-52
2022/09/29 10:02:19;;;;;;;8.52;6.65;;;15.30;99.90;;;;;;5113433;28;20161;-53
2022/09/29 10:04:50;;;;;;;13.43;6.57;;;15.00;99.90;;;;;;5113582;27;20547;-53
2022/09/29 10:07:18;;;;;;;9.50;5.68;;;14.70;99.90;;;;;;5113484;27;20169;-53
2022/09/29 10:09:44;;;;;;;13.23;5.72;;;14.40;99.90;;;;;;5113461;27;20175;-53
2022/09/29 10:12:21;;;;;;;10.30;6.03;;;14.30;99.90;;;;;;5113070;28;20169;-53
2022/09/29 10:15:02;;;;;;;12.10;6.70;;;14.10;99.90;;;;;;5111700;27;20183;-53
2022/09/29 10:17:36;;;;;;;12.80;6.05;;;14.00;99.90;;;;;;5113066;28;20211;-53
2022/09/29 10:20:07;;;;;;;10.30;6.20;;;14.00;99.90;;;;;;5112922;28;20171;-53
2022/09/29 10:22:34;;;;;;;11.55;6.82;;;13.90;99.90;;;;;;5112990;28;20160;-53
2022/09/29 10:25:07;;;;;;;9.73;6.63;;;13.80;99.90;;;;;;5112988;27;20207;-53
2022/09/29 10:27:33;;;;;;;15.73;6.25;;;13.80;99.90;;;;;;5113102;28;20173;-53
2022/09/29 10:30:01;;;;;;;7.97;6.00;;;13.80;99.90;;;;;;5112841;28;20690;-53
2022/09/29 10:32:36;;;;;;;8.43;6.57;;;13.60;99.90;;;;;;5112825;28;20169;-53
2022/09/29 10:35:07;;;;;;;14.57;6.95;;;13.60;99.90;;;;;;5112814;28;20192;-53
2022/09/29 10:37:37;;;;;;;12.15;6.75;;;13.50;99.90;;;;;;5112956;28;20231;-53
2022/09/29 10:40:11;;;;;;;14.30;5.82;;;13.50;99.90;;;;;;5112674;28;20168;-53
2022/09/29 10:42:39;;;;;;;8.85;6.35;;;13.50;99.90;;;;;;5112624;28;20172;-53
2022/09/29 10:45:18;;;;;;;9.82;6.57;;;13.60;99.90;;;;;;5112562;28;20247;-53
2022/09/29 10:48:06;;;;;;;9.70;6.28;;;13.60;99.90;;;;;;5112475;28;20724;-53
2022/09/29 10:50:48;;;;;;;11.25;6.90;;;13.60;99.90;;;;;;5112468;27;20498;-53
2022/09/29 10:53:35;;;;;;;9.70;6.88;;;13.60;99.90;;;;;;5112774;27;20585;-53
2022/09/29 10:56:16;;;;;;;11.32;6.95;;;13.50;99.90;;;;;;5112244;28;20241;-53
2022/09/29 10:58:50;;;;;;;10.80;7.00;;;13.50;99.90;;;;;;5112250;28;20196;-54
2022/09/29 11:01:18;;;;;;;13.82;8.18;;;13.60;99.90;;;;;;5112082;28;20535;-53
2022/09/29 11:04:02;;;;;;;10.73;6.78;;;13.70;99.90;;;;;;5112305;28;20164;-53
2022/09/29 11:06:30;;;;;;;15.75;7.57;;;13.60;99.90;;;;;;5112252;27;20657;-53
2022/09/29 11:09:02;;;;;;;11.68;7.70;;;13.50;99.90;;;;;;5112207;28;20167;-53
2022/09/29 11:11:35;;;;;;;8.40;7.07;;;13.50;99.90;;;;;;5112016;28;20214;-53
2022/09/29 11:14:00;;;;;;;10.48;7.03;;;13.60;99.90;;;;;;5112174;28;20164;-53
2022/09/29 11:16:31;;;;;;;12.55;8.35;;;13.60;99.90;;;;;;5112108;28;20512;-53
2022/09/29 11:19:04;;;;;;;13.05;8.70;;;13.60;99.90;;;;;;5112058;28;20200;-54
2022/09/29 11:21:35;;;;;;;12.27;9.55;;;13.60;99.90;;;;;;5111937;28;20156;-53
2022/09/29 11:24:31;;;;;;;16.50;11.18;;;13.70;99.90;;;;;;5111594;28;20235;-54
2022/09/29 11:27:18;;;;;;;17.10;10.05;;;13.80;99.90;;;;;;5112239;28;20564;-53
2022/09/29 11:30:09;;;;;;;12.40;9.15;;;13.90;99.90;;;;;;5111989;28;20169;-53
2022/09/29 11:33:00;;;;;;;12.80;10.07;;;14.00;99.90;;;;;;5111859;27;20204;-54
2022/09/29 11:35:53;;;;;;;12.70;9.10;;;14.10;99.90;;;;;;5112183;28;20214;-53
2022/09/29 11:38:32;;;;;;;14.50;8.95;;;14.20;99.90;;;;;;5111744;28;20204;-54
2022/09/29 11:41:24;;;;;;;11.57;9.20;;;14.20;99.90;;;;;;5111989;28;20160;-54
2022/09/29 11:43:54;;;;;;;13.05;9.35;;;14.20;99.90;;;;;;5112406;28;20168;-54
2022/09/29 11:46:38;;;;;;;21.42;10.73;;;14.20;99.90;;;;;;5112106;28;20161;-54
2022/09/29 11:49:12;;;;;;;16.70;9.82;;;14.20;99.90;;;;;;5112006;28;20175;-54
2022/09/29 11:52:16;;;;;;;13.88;8.85;;;14.30;99.90;;;;;;5111747;28;20213;-54
2022/09/29 11:55:13;;;;;;;11.52;8.20;;;14.30;99.90;;;;;;5098783;28;20565;-54
2022/09/29 11:58:06;;;;;;;13.05;8.43;;;14.30;99.90;;;;;;5111676;28;20204;-54
2022/09/29 12:00:49;;;;;;;13.82;9.15;;;14.20;99.90;;;;;;5111700;28;20239;-53
2022/09/29 12:03:38;;;;;;;10.18;7.32;;;14.20;99.90;;;;;;5111664;28;20630;-53
2022/09/29 12:06:30;;;;;;;13.23;8.02;;;14.20;99.90;;;;;;5111850;28;20247;-54
2022/09/29 12:09:14;;;;;;;14.35;8.18;;;14.30;99.90;;;;;;5111879;28;20214;-53
2022/09/29 12:12:07;;;;;;;14.38;8.80;;;14.30;99.90;;;;;;5111601;28;20192;-53
2022/09/29 12:14:53;;;;;;;15.40;7.97;;;14.40;99.90;;;;;;5111666;28;20161;-53
2022/09/29 12:17:21;;;;;;;13.10;9.10;;;14.30;99.90;;;;;;5111415;27;20231;-53
2022/09/29 12:20:01;;;;;;;13.30;8.05;;;14.30;99.90;;;;;;5111692;28;20177;-53
2022/09/29 12:22:28;;;;;;;10.15;8.07;;;14.30;99.90;;;;;;5111841;28;20247;-53
2022/09/29 12:24:56;;;;;;;16.98;8.63;;;14.40;99.90;;;;;;5112073;27;20211;-53
2022/09/29 12:27:35;;;;;;;14.10;7.32;;;14.40;99.90;;;;;;5112004;28;20229;-53
2022/09/29 12:30:13;;;;;;;9.52;6.85;;;14.50;99.90;;;;;;5111469;28;20216;-53
2022/09/29 12:32:48;;;;;;;10.38;7.85;;;15.10;99.90;;;;;;5111324;28;20175;-53
2022/09/29 12:35:22;;;;;;;9.23;6.28;;;14.60;99.90;;;;;;5111406;28;20223;-53
2022/09/29 12:38:10;;;;;;;9.20;5.72;;;14.60;99.90;;;;;;5115111;28;20212;-53
2022/09/29 12:40:48;;;;;;;7.88;5.55;;;14.60;99.90;;;;;;5115297;28;20171;-54
2022/09/29 12:43:21;;;;;;;8.98;6.15;;;14.60;99.90;;;;;;5114987;28;20171;-53
2022/09/29 12:45:55;;;;;;;9.18;5.88;;;14.70;99.90;;;;;;5115213;27;20164;-53
2022/09/29 12:48:47;;;;;;;7.80;6.05;;;14.80;99.90;;;;;;5115265;27;20167;-53
2022/09/29 12:51:19;;;;;;;7.13;4.97;;;14.80;99.90;;;;;;5114879;28;20157;-53
2022/09/29 12:54:00;;;;;;;7.70;5.13;;;14.80;99.90;;;;;;5114645;28;20168;-53
2022/09/29 12:56:32;;;;;;;5.22;3.70;;;14.80;99.90;;;;;;5114644;27;20641;-53
2022/09/29 12:59:26;;;;;;;7.55;3.95;;;14.80;99.90;;;;;;5114554;28;20269;-53
2022/09/29 13:01:55;;;;;;;5.97;2.80;;;14.80;99.90;;;;;;5098754;28;20177;-53
2022/09/29 13:04:49;;;;;;;6.03;3.35;;;14.80;99.90;;;;;;5114840;28;20603;-53
2022/09/29 13:07:39;;;;;;;5.18;3.30;;;14.90;99.90;;;;;;5114648;28;20192;-53
2022/09/29 13:10:39;;;;;;;7.57;3.63;;;15.00;99.90;;;;;;5114389;28;20160;-53
2022/09/29 13:13:22;;;;;;;9.20;4.00;;;15.10;99.90;;;;;;5114556;28;20169;-53
2022/09/29 13:16:01;;;;;;;7.25;3.72;;;15.20;99.90;;;;;;5114201;28;20169;-53
2022/09/29 13:18:47;;;;;;;6.93;4.45;;;15.20;99.90;;;;;;5114352;28;20294;-54